Time;durP1;ratioP1;P1;durP2;ratioP2;P2;SDS_P1;SDS_P2;PMS_P1;PMS_P2;Temp;Humidity;BMP_temperature;BMP_pressure;BME280_temperature;BME280_humidity;BME280_pressure;Samples;Min_cycle;Max_cycle;Signal;HPM_P1;HPM_P2
2022/04/22 00:00:30;;;;;;;74.55;31.08;;;;;;;-149.78;100.00;50273.91;4881010;29;20492;-74
2022/04/22 00:02:56;;;;;;;76.43;31.90;;;;;;;-149.78;100.00;50240.66;4882966;29;20036;-74
2022/04/22 00:05:22;;;;;;;85.20;33.50;;;;;;;-149.78;100.00;50209.38;4883388;29;20528;-74
2022/04/22 00:07:48;;;;;;;80.40;33.33;;;;;;;-149.78;100.00;50221.13;4882035;29;20043;-73
2022/04/22 00:10:14;;;;;;;81.43;34.25;;;;;;;-149.78;100.00;50240.66;4882739;29;20024;-74
2022/04/22 00:12:40;;;;;;;79.72;34.58;;;;;;;-149.78;100.00;50236.75;4882767;29;20460;-75
2022/04/22 00:15:07;;;;;;;84.70;35.15;;;;;;;-149.78;100.00;50217.19;4882623;29;20064;-69
2022/04/22 00:17:32;;;;;;;87.15;35.28;;;;;;;-149.78;100.00;50236.75;4886096;29;20037;-70
2022/04/22 00:19:58;;;;;;;88.72;34.33;;;;;;;-149.78;100.00;50244.59;4883572;29;20044;-70
2022/04/22 00:22:23;;;;;;;87.18;36.35;;;;;;;-149.78;100.00;50244.59;4886827;29;20046;-70
2022/04/22 00:24:49;;;;;;;81.25;35.17;;;;;;;-149.78;100.00;50248.50;4885332;29;20637;-70
2022/04/22 00:27:14;;;;;;;83.75;35.47;;;;;;;-149.78;100.00;50189.81;4885769;29;20029;-70
2022/04/22 00:29:40;;;;;;;85.75;36.42;;;;;;;-149.78;100.00;50244.59;4884472;29;20461;-70
2022/04/22 00:32:07;;;;;;;92.97;37.28;;;;;;;-149.78;100.00;50225.03;4905248;29;20127;-70
2022/04/22 00:34:33;;;;;;;89.57;35.83;;;;;;;-149.78;100.00;50211.34;4889803;29;20044;-70
2022/04/22 00:36:58;;;;;;;87.28;36.40;;;;;;;-149.78;100.00;50248.50;4884984;29;20573;-71
2022/04/22 00:39:24;;;;;;;87.40;36.30;;;;;;;-149.78;100.00;50236.75;4886391;29;20140;-71
2022/04/22 00:41:50;;;;;;;87.63;35.38;;;;;;;-149.78;100.00;50242.63;4885259;29;20387;-70
2022/04/22 00:44:15;;;;;;;85.50;35.35;;;;;;;-149.78;100.00;50209.38;4867991;29;20168;-70
2022/04/22 00:46:41;;;;;;;84.05;36.05;;;;;;;-149.78;100.00;50230.88;4885910;29;20028;-71
2022/04/22 00:49:06;;;;;;;87.20;36.50;;;;;;;-149.78;100.00;50225.03;4884958;29;20048;-70
2022/04/22 00:51:32;;;;;;;88.35;36.10;;;;;;;-149.78;100.00;50258.28;4867582;29;20040;-71
2022/04/22 00:53:58;;;;;;;88.22;34.60;;;;;;;-149.78;100.00;50248.50;4885864;29;20041;-74
2022/04/22 00:56:24;;;;;;;88.78;36.70;;;;;;;-149.78;100.00;50242.63;4887083;29;20036;-73
2022/04/22 00:58:52;;;;;;;88.22;35.55;;;;;;;-149.78;100.00;50244.59;4885929;29;20029;-74
2022/04/22 01:01:19;;;;;;;82.00;36.17;;;;;;;-149.78;100.00;50205.47;4886768;29;20040;-73
2022/04/22 01:12:06;;;;;;;85.63;34.67;;;;;;;-149.78;100.00;50273.91;4885609;29;20477;-74
2022/04/22 01:14:33;;;;;;;89.63;36.15;;;;;;;-149.78;100.00;50199.59;4869597;29;20036;-74
2022/04/22 01:17:01;;;;;;;82.60;34.05;;;;;;;-149.78;100.00;50244.59;4883320;29;20040;-74
2022/04/22 01:19:28;;;;;;;86.65;35.25;;;;;;;-149.78;100.00;50225.03;4884609;29;20044;-74
2022/04/22 01:21:54;;;;;;;85.43;34.42;;;;;;;-149.78;100.00;50244.59;4853977;29;20050;-73
2022/04/22 01:24:19;;;;;;;92.05;35.00;;;;;;;-149.78;100.00;50244.59;4885505;29;20036;-74
2022/04/22 01:26:46;;;;;;;80.70;34.20;;;;;;;-149.78;100.00;50254.34;4884746;29;20119;-74
2022/04/22 01:29:13;;;;;;;78.15;31.95;;;;;;;-149.78;100.00;50242.63;4868562;29;20036;-73
2022/04/22 01:31:39;;;;;;;71.32;31.38;;;;;;;-149.78;100.00;50248.50;4868859;29;20040;-73
2022/04/22 01:34:05;;;;;;;71.85;31.73;;;;;;;-149.78;100.00;50252.41;4884740;29;20049;-73
2022/04/22 01:36:30;;;;;;;74.95;29.95;;;;;;;-149.78;100.00;50238.72;4884353;29;20040;-72
2022/04/22 01:38:56;;;;;;;75.55;31.75;;;;;;;-149.78;100.00;50232.84;4868910;29;20052;-72
2022/04/22 01:41:21;;;;;;;71.63;31.58;;;;;;;-149.78;100.00;50240.66;4884149;29;20397;-72
2022/04/22 01:43:48;;;;;;;72.55;31.85;;;;;;;-149.78;100.00;50254.34;4884289;29;20485;-73
2022/04/22 01:46:15;;;;;;;72.50;31.95;;;;;;;-149.78;100.00;50244.59;4884563;29;20048;-72
2022/04/22 01:48:42;;;;;;;74.00;30.88;;;;;;;-149.78;100.00;50217.19;4884253;29;21297;-73
2022/04/22 01:51:08;;;;;;;77.18;30.90;;;;;;;-149.78;100.00;50240.66;4853239;29;20036;-72
2022/04/22 01:53:34;;;;;;;69.53;30.23;;;;;;;-149.78;100.00;50238.72;4882820;29;20468;-72
2022/04/22 01:56:00;;;;;;;80.85;31.75;;;;;;;-149.78;100.00;50234.81;4884455;29;20043;-72
2022/04/22 01:58:25;;;;;;;70.75;28.08;;;;;;;-149.78;100.00;50271.97;4884184;29;20041;-73
2022/04/22 02:00:51;;;;;;;74.00;29.90;;;;;;;-149.78;100.00;50228.94;4884793;29;20108;-73
2022/04/22 02:03:16;;;;;;;67.50;29.73;;;;;;;-149.78;100.00;50232.84;4883970;29;20045;-73
2022/04/22 02:05:42;;;;;;;72.47;30.63;;;;;;;-149.78;100.00;50238.72;4883062;29;20052;-73
2022/04/22 02:08:09;;;;;;;70.05;29.63;;;;;;;-149.78;100.00;50260.22;4868037;29;20060;-72
2022/04/22 02:10:34;;;;;;;62.38;27.45;;;;;;;-149.78;100.00;50223.06;4884436;29;20041;-72
2022/04/22 02:13:00;;;;;;;64.43;27.23;;;;;;;-149.78;100.00;50234.81;4868253;29;20037;-72
2022/04/22 02:15:29;;;;;;;65.65;26.98;;;;;;;-149.78;100.00;50250.44;4867698;29;20472;-72
2022/04/22 02:17:55;;;;;;;64.00;26.85;;;;;;;-149.78;100.00;50238.72;4868101;29;20098;-73
2022/04/22 02:20:21;;;;;;;56.40;25.55;;;;;;;-149.78;100.00;50240.66;4883612;29;20437;-73
2022/04/22 02:22:48;;;;;;;62.42;26.67;;;;;;;-149.78;100.00;50236.75;4867479;29;20842;-72
2022/04/22 02:25:13;;;;;;;58.55;26.45;;;;;;;-149.78;100.00;50209.38;4884318;29;20025;-73
2022/04/22 02:30:23;;;;;;;54.00;24.58;;;;;;;-149.78;100.00;50271.97;4882506;29;20048;-72
2022/04/22 02:32:50;;;;;;;52.10;24.35;;;;;;;-149.78;100.00;50268.03;4884085;29;20100;-73
2022/04/22 02:35:16;;;;;;;53.65;25.05;;;;;;;-149.78;100.00;50268.03;4883532;29;20040;-73
2022/04/22 02:37:42;;;;;;;50.80;23.52;;;;;;;-149.78;100.00;50260.22;4881541;29;20753;-73
2022/04/22 02:40:08;;;;;;;49.80;24.33;;;;;;;-149.78;100.00;50240.66;4882036;29;20051;-73
2022/04/22 02:45:27;;;;;;;54.58;24.02;;;;;;;-149.78;100.00;50248.50;4880725;29;20076;-73
2022/04/22 02:47:57;;;;;;;51.20;24.40;;;;;;;-149.78;100.00;50225.03;4881647;29;20120;-72
2022/04/22 02:50:23;;;;;;;54.90;24.90;;;;;;;-149.78;100.00;50287.59;4880465;29;20036;-72
2022/04/22 02:52:49;;;;;;;57.42;24.55;;;;;;;-149.78;100.00;50268.03;4880517;29;20437;-74
2022/04/22 02:55:15;;;;;;;56.85;24.58;;;;;;;-149.78;100.00;50197.66;4882837;29;20065;-73
2022/04/22 02:57:43;;;;;;;54.05;24.38;;;;;;;-149.78;100.00;50240.66;4881419;29;20036;-74
2022/04/22 03:00:12;;;;;;;55.22;23.45;;;;;;;-149.78;100.00;50232.84;4883463;29;20049;-73
2022/04/22 03:02:37;;;;;;;54.47;23.08;;;;;;;-149.78;100.00;50228.94;4880812;29;20036;-74
2022/04/22 03:05:03;;;;;;;46.47;21.92;;;;;;;-149.78;100.00;50248.50;4883233;29;20370;-73
2022/04/22 03:07:32;;;;;;;44.58;21.02;;;;;;;-149.78;100.00;50270.00;4884240;29;20048;-73
2022/04/22 03:09:57;;;;;;;45.17;20.60;;;;;;;-149.78;100.00;50240.66;4867818;29;20055;-73
2022/04/22 03:12:23;;;;;;;50.75;20.77;;;;;;;-149.78;100.00;50217.19;4885689;29;20049;-73
2022/04/22 03:14:49;;;;;;;43.95;21.02;;;;;;;-149.78;100.00;50213.28;4884173;29;20078;-72
2022/04/22 03:17:15;;;;;;;47.95;19.95;;;;;;;-149.78;100.00;50268.03;4867242;29;20064;-73
2022/04/22 03:19:40;;;;;;;42.38;19.45;;;;;;;-149.78;100.00;50289.56;4883442;29;20028;-73
2022/04/22 03:22:06;;;;;;;40.38;18.65;;;;;;;-149.78;100.00;50236.75;4883552;29;20414;-72
2022/04/22 03:24:31;;;;;;;44.80;18.92;;;;;;;-149.78;100.00;50236.75;4881770;29;20032;-72
2022/04/22 03:26:58;;;;;;;41.83;18.17;;;;;;;-149.78;100.00;50232.84;4881952;29;20040;-72
2022/04/22 03:29:23;;;;;;;44.90;19.13;;;;;;;-149.78;100.00;50248.50;4884366;29;20389;-72
2022/04/22 03:31:49;;;;;;;45.00;17.73;;;;;;;-149.78;100.00;50228.94;4881906;29;20484;-72
2022/04/22 03:34:15;;;;;;;48.03;18.55;;;;;;;-149.78;100.00;50236.75;4884036;29;20499;-73
2022/04/22 03:36:40;;;;;;;43.35;17.30;;;;;;;-149.78;100.00;50244.59;4865574;29;20135;-73
2022/04/22 03:39:07;;;;;;;39.55;17.45;;;;;;;-149.78;100.00;50225.03;4882250;29;20044;-73
2022/04/22 03:41:33;;;;;;;44.05;17.45;;;;;;;-149.78;100.00;50285.66;4883042;29;20040;-73
2022/04/22 03:43:59;;;;;;;33.03;15.35;;;;;;;-149.78;100.00;50232.84;4882963;29;20488;-73
2022/04/22 03:46:25;;;;;;;35.30;16.08;;;;;;;-149.78;100.00;50262.19;4889023;29;20061;-72
2022/04/22 03:48:50;;;;;;;38.28;15.93;;;;;;;-149.78;100.00;50275.88;4888287;29;20040;-73
2022/04/22 03:51:16;;;;;;;41.63;16.48;;;;;;;-149.78;100.00;50260.22;4885915;29;20036;-72
2022/04/22 03:53:41;;;;;;;39.25;16.50;;;;;;;-149.78;100.00;50299.34;4887477;29;20043;-73
2022/04/22 03:58:51;;;;;;;40.53;16.58;;;;;;;-149.78;100.00;50242.63;4896337;29;20438;-73
2022/04/22 04:01:17;;;;;;;35.42;15.52;;;;;;;-149.78;100.00;50260.22;4897389;29;20041;-72
2022/04/22 04:03:43;;;;;;;37.47;15.23;;;;;;;-149.78;100.00;50256.31;4880637;29;20127;-73
2022/04/22 04:06:08;;;;;;;44.63;16.38;;;;;;;-149.78;100.00;50248.50;4896098;29;20489;-72
2022/04/22 04:08:34;;;;;;;40.30;15.57;;;;;;;-149.78;100.00;50262.19;4897263;29;20048;-73
2022/04/22 04:16:29;;;;;;;35.55;15.70;;;;;;;-149.78;100.00;50242.63;4895123;29;20079;-73
2022/04/22 04:23:14;;;;;;;36.65;15.35;;;;;;;-149.78;100.00;50248.50;4880327;29;20072;-73
2022/04/22 04:24:24;;;;;;;32.83;14.95;;;;;;;-149.78;100.00;50260.22;4895829;29;20041;-72
2022/04/22 04:26:50;;;;;;;38.45;15.25;;;;;;;-149.78;100.00;50248.50;4897176;29;20040;-73
2022/04/22 04:29:16;;;;;;;32.30;15.30;;;;;;;-149.78;100.00;50264.13;4896081;29;20079;-72
2022/04/22 04:31:41;;;;;;;38.42;15.52;;;;;;;-149.78;100.00;50271.97;4895722;29;20135;-73
2022/04/22 04:34:07;;;;;;;36.67;16.15;;;;;;;-149.78;100.00;50260.22;4879897;29;20045;-73
2022/04/22 04:36:33;;;;;;;33.10;15.80;;;;;;;-149.78;100.00;50248.50;4897116;29;20044;-73
2022/04/22 04:38:58;;;;;;;34.30;16.15;;;;;;;-149.78;100.00;50287.59;4895568;29;20052;-73
2022/04/22 04:41:24;;;;;;;38.05;16.90;;;;;;;-149.78;100.00;50279.78;4895964;29;20035;-72
2022/04/22 04:43:51;;;;;;;44.63;17.75;;;;;;;-149.78;100.00;50275.88;4895581;29;20469;-72
2022/04/22 04:46:17;;;;;;;36.72;16.25;;;;;;;-149.78;100.00;50244.59;4896816;29;20103;-73
2022/04/22 04:48:43;;;;;;;42.95;18.23;;;;;;;-149.78;100.00;50295.44;4891619;29;20037;-73
2022/04/22 04:51:09;;;;;;;43.97;17.75;;;;;;;-149.78;100.00;50291.50;4896007;29;20072;-69
2022/04/22 04:53:34;;;;;;;43.63;18.42;;;;;;;-149.78;100.00;50268.03;4888519;29;20136;-69
2022/04/22 04:56:00;;;;;;;41.15;17.45;;;;;;;-149.78;100.00;50252.41;4880836;29;20041;-69
2022/04/22 04:58:26;;;;;;;40.20;18.05;;;;;;;-149.78;100.00;50260.22;4882668;29;20052;-69
2022/04/22 05:00:52;;;;;;;41.63;18.23;;;;;;;-149.78;100.00;50279.78;4891123;29;20039;-73
2022/04/22 05:03:17;;;;;;;43.97;17.77;;;;;;;-149.78;100.00;50268.03;4898982;29;20668;-73
2022/04/22 05:05:43;;;;;;;43.55;19.17;;;;;;;-149.78;100.00;50250.44;4900366;29;20032;-74
2022/04/22 05:08:10;;;;;;;45.05;18.38;;;;;;;-149.78;100.00;50240.66;4900481;29;20041;-73
2022/04/22 05:10:36;;;;;;;36.10;17.90;;;;;;;-149.78;100.00;50262.19;4900538;29;20036;-73
2022/04/22 05:13:03;;;;;;;42.40;17.98;;;;;;;-149.78;100.00;50252.41;4893337;29;20040;-73
2022/04/22 05:15:31;;;;;;;40.30;19.50;;;;;;;-149.78;100.00;50275.88;4890228;29;20045;-73
2022/04/22 05:18:04;;;;;;;48.47;19.40;;;;;;;-149.78;100.00;50264.13;4887504;29;20538;-74
2022/04/22 05:20:32;;;;;;;44.88;19.25;;;;;;;-149.78;100.00;50240.66;4889007;29;20040;-72
2022/04/22 05:22:58;;;;;;;44.17;19.30;;;;;;;-149.78;100.00;50252.41;4866961;29;20049;-72
2022/04/22 05:25:24;;;;;;;44.55;19.95;;;;;;;-149.78;100.00;50244.59;4881111;29;20044;-73
2022/04/22 05:27:50;;;;;;;56.17;21.42;;;;;;;-149.78;100.00;50252.41;4881024;29;20401;-73
2022/04/22 05:33:03;;;;;;;45.45;19.85;;;;;;;-149.78;100.00;50283.69;4908522;29;20044;-74
2022/04/22 05:35:29;;;;;;;52.20;19.88;;;;;;;-149.78;100.00;50270.00;4894243;29;20033;-74
2022/04/22 05:38:03;;;;;;;42.88;19.25;;;;;;;-149.78;100.00;50256.31;4892783;29;20044;-73
2022/04/22 05:40:33;;;;;;;40.90;18.45;;;;;;;-149.78;100.00;50221.13;4883501;29;20068;-73
2022/04/22 05:42:59;;;;;;;38.88;18.95;;;;;;;-149.78;100.00;50209.38;4890381;29;20029;-72
2022/04/22 05:45:26;;;;;;;40.88;18.85;;;;;;;-149.78;100.00;50252.41;4886800;29;20057;-73
2022/04/22 05:47:52;;;;;;;41.72;18.85;;;;;;;-149.78;100.00;50283.69;4891245;29;20036;-73
2022/04/22 05:50:19;;;;;;;46.53;19.13;;;;;;;-149.78;100.00;50260.22;4889288;29;20047;-73
2022/04/22 05:52:45;;;;;;;52.45;19.55;;;;;;;-149.78;100.00;50236.75;4894549;29;20377;-73
2022/04/22 05:55:16;;;;;;;41.90;18.88;;;;;;;-149.78;100.00;50254.34;4886020;29;20040;-73
2022/04/22 05:57:43;;;;;;;46.20;19.27;;;;;;;-149.78;100.00;50236.75;4885295;29;20123;-71
2022/04/22 06:00:12;;;;;;;41.95;18.42;;;;;;;-149.78;100.00;50236.75;4884785;29;20075;-73
2022/04/22 06:02:39;;;;;;;41.83;18.48;;;;;;;-149.78;100.00;50270.00;4887353;29;20032;-74
2022/04/22 06:05:05;;;;;;;46.20;18.92;;;;;;;-149.78;100.00;50256.31;4885370;29;20079;-73
2022/04/22 06:07:31;;;;;;;42.10;18.90;;;;;;;-149.78;100.00;50250.44;4886266;29;20041;-72
2022/04/22 06:12:40;;;;;;;41.88;18.17;;;;;;;-149.78;100.00;50244.59;4895168;29;20036;-73
2022/04/22 06:15:07;;;;;;;44.95;19.00;;;;;;;-149.78;100.00;50232.84;4888123;29;20029;-74
2022/04/22 06:17:32;;;;;;;40.80;17.50;;;;;;;-149.78;100.00;50256.31;4871014;29;20040;-74
2022/04/22 06:19:58;;;;;;;44.42;17.88;;;;;;;-149.78;100.00;50252.41;4881384;29;20036;-74
2022/04/22 06:22:26;;;;;;;39.35;18.20;;;;;;;-149.78;100.00;50219.16;4894728;29;20084;-70
2022/04/22 06:24:52;;;;;;;41.33;18.58;;;;;;;-149.78;100.00;50248.50;4884562;29;20044;-73
2022/04/22 06:27:34;;;;;;;49.20;19.48;;;;;;;-149.78;100.00;50264.13;4889074;29;20087;-75
2022/04/22 06:30:07;;;;;;;49.58;18.73;;;;;;;-149.78;100.00;50252.41;4899185;29;20393;-74
2022/04/22 06:32:34;;;;;;;41.83;18.75;;;;;;;-149.78;100.00;50232.84;4895261;29;20037;-74
2022/04/22 06:35:00;;;;;;;45.45;18.35;;;;;;;-149.78;100.00;50232.84;4888168;29;20036;-73
2022/04/22 06:37:33;;;;;;;42.13;18.13;;;;;;;-149.78;100.00;50256.31;4889442;29;20045;-73
2022/04/22 06:45:46;;;;;;;42.28;18.58;;;;;;;-149.78;100.00;50236.75;4886457;29;20509;-73
2022/04/22 06:48:26;;;;;;;41.65;19.08;;;;;;;-149.78;100.00;50260.22;4888590;29;20140;-74
2022/04/22 06:50:52;;;;;;;46.25;19.08;;;;;;;-149.78;100.00;50271.97;4887806;29;20541;-73
2022/04/22 06:53:19;;;;;;;53.90;18.92;;;;;;;-149.78;100.00;50291.50;4887596;29;20048;-73
2022/04/22 06:55:48;;;;;;;40.25;19.02;;;;;;;-149.78;100.00;50301.28;4888972;29;20092;-73
2022/04/22 06:58:17;;;;;;;49.63;20.35;;;;;;;-149.78;100.00;50268.03;4887605;29;20307;-73
2022/04/22 07:00:44;;;;;;;45.17;19.55;;;;;;;-149.78;100.00;50230.88;4887616;29;20051;-72
2022/04/22 07:03:11;;;;;;;45.40;18.67;;;;;;;-149.78;100.00;50273.91;4869629;29;20040;-73
2022/04/22 07:05:38;;;;;;;48.40;18.27;;;;;;;-149.78;100.00;50248.50;4881067;29;20044;-73
2022/04/22 07:08:06;;;;;;;41.90;17.92;;;;;;;-149.78;100.00;50234.81;4880749;29;20032;-74
2022/04/22 07:10:35;;;;;;;42.08;18.05;;;;;;;-149.78;100.00;50275.88;4882308;29;20124;-73
2022/04/22 07:13:02;;;;;;;45.88;18.33;;;;;;;-149.78;100.00;50254.34;4883120;29;20494;-73
2022/04/22 07:15:28;;;;;;;36.28;16.23;;;;;;;-149.78;100.00;50275.88;4883660;29;20108;-72
2022/04/22 07:17:55;;;;;;;45.47;16.95;;;;;;;-149.78;100.00;50264.13;4884310;29;20143;-73
2022/04/22 07:20:22;;;;;;;37.17;17.05;;;;;;;-149.78;100.00;50295.44;4877041;29;20088;-73
2022/04/22 07:22:48;;;;;;;40.67;17.13;;;;;;;-149.78;100.00;50271.97;4880915;29;20048;-72
2022/04/22 07:25:14;;;;;;;44.13;17.30;;;;;;;-149.78;100.00;50268.03;4879360;29;20044;-73
2022/04/22 07:27:42;;;;;;;41.72;17.42;;;;;;;-149.78;100.00;50258.28;4877625;29;20056;-73
2022/04/22 07:30:10;;;;;;;47.17;17.63;;;;;;;-149.78;100.00;50256.31;4888177;29;20039;-74
2022/04/22 07:32:41;;;;;;;38.65;16.92;;;;;;;-149.78;100.00;50244.59;4881397;29;20037;-72
2022/04/22 07:35:12;;;;;;;41.73;16.97;;;;;;;-149.78;100.00;50248.50;4878843;29;20044;-72
2022/04/22 07:37:39;;;;;;;45.90;17.60;;;;;;;-149.78;100.00;50264.13;4884088;29;20049;-72
2022/04/22 07:40:06;;;;;;;39.35;16.65;;;;;;;-149.78;100.00;50268.03;4882829;29;20040;-72
2022/04/22 07:42:34;;;;;;;47.05;17.10;;;;;;;-149.78;100.00;50246.53;4882739;29;20037;-72
2022/04/22 07:47:47;;;;;;;41.88;16.52;;;;;;;-149.78;100.00;50277.81;4885358;29;20037;-72
2022/04/22 07:50:14;;;;;;;34.97;17.48;;;;;;;-149.78;100.00;50240.66;4877457;29;20085;-72
2022/04/22 07:52:44;;;;;;;49.10;17.15;;;;;;;-149.78;100.00;50252.41;4880117;29;20060;-72
2022/04/22 07:55:10;;;;;;;41.03;16.33;;;;;;;-149.78;100.00;50252.41;4881383;29;20032;-73
2022/04/22 07:57:36;;;;;;;38.55;16.25;;;;;;;-149.78;100.00;50271.97;4885086;29;20032;-72
2022/04/22 08:00:04;;;;;;;46.17;15.88;;;;;;;-149.78;100.00;50256.31;4883069;29;20093;-72
2022/04/22 08:02:30;;;;;;;39.05;15.73;;;;;;;-149.78;100.00;50226.97;4877248;29;20116;-72
2022/04/22 08:04:55;;;;;;;33.38;15.13;;;;;;;-149.78;100.00;50299.34;4876208;29;20081;-72
2022/04/22 08:07:21;;;;;;;39.13;15.02;;;;;;;-149.78;100.00;50213.28;4878136;29;20177;-69
2022/04/22 08:09:46;;;;;;;32.45;15.00;;;;;;;-149.78;100.00;50244.59;4878141;29;20041;-71
2022/04/22 08:12:13;;;;;;;39.40;15.88;;;;;;;-149.78;100.00;50252.41;4885810;29;20425;-72
2022/04/22 08:14:40;;;;;;;41.60;15.80;;;;;;;-149.78;100.00;50270.00;4882155;29;20037;-71
2022/04/22 08:17:06;;;;;;;30.60;15.10;;;;;;;-149.78;100.00;50203.50;4879766;29;20040;-72
2022/04/22 08:19:32;;;;;;;38.10;13.63;;;;;;;-149.78;100.00;50213.28;4887343;29;20045;-72
2022/04/22 08:21:58;;;;;;;28.75;12.13;;;;;;;-149.78;100.00;50197.66;4884806;29;20043;-72
2022/04/22 08:24:24;;;;;;;27.83;10.93;;;;;;;-149.78;100.00;50185.91;4864857;29;20045;-71
2022/04/22 08:26:50;;;;;;;23.70;11.95;;;;;;;-149.78;100.00;50221.13;4884731;29;20105;-71
2022/04/22 08:29:17;;;;;;;27.50;11.45;;;;;;;-149.78;100.00;50154.63;4887749;29;20076;-69
2022/04/22 08:31:46;;;;;;;25.65;10.25;;;;;;;-149.78;100.00;50189.81;4890431;29;20037;-69
2022/04/22 08:34:12;;;;;;;30.00;12.27;;;;;;;-149.78;100.00;50221.13;4879605;29;20346;-70
2022/04/22 08:36:38;;;;;;;22.05;11.52;;;;;;;-149.78;100.00;50189.81;4885817;29;20048;-70
2022/04/22 08:39:05;;;;;;;26.40;10.95;;;;;;;-149.78;100.00;50213.28;4885901;29;20441;-69
2022/04/22 08:41:34;;;;;;;22.85;11.68;;;;;;;-149.78;100.00;50180.03;4877200;29;20037;-69
2022/04/22 08:44:01;;;;;;;26.33;10.65;;;;;;;-149.78;100.00;50162.44;4899960;29;20127;-70
2022/04/22 08:51:56;;;;;;;24.30;9.02;;;;;;;-149.78;100.00;50150.72;4900134;29;20064;-70
2022/04/22 08:54:26;;;;;;;27.98;10.30;;;;;;;-149.78;100.00;50189.81;4899050;29;20037;-68
2022/04/22 08:56:52;;;;;;;22.35;9.95;;;;;;;-149.78;100.00;50158.53;4899984;29;20044;-68
2022/04/22 08:59:18;;;;;;;23.52;10.25;;;;;;;-149.78;100.00;50189.81;4900069;29;20036;-68
2022/04/22 09:01:44;;;;;;;25.38;10.35;;;;;;;-149.78;100.00;50166.34;4889006;29;20136;-69
2022/04/22 09:04:10;;;;;;;21.92;9.98;;;;;;;-149.78;100.00;50127.25;4882837;29;20366;-68
2022/04/22 09:06:36;;;;;;;22.08;9.65;;;;;;;-149.78;100.00;50150.72;4886626;29;20141;-69
2022/04/22 09:09:04;;;;;;;26.13;9.95;;;;;;;-149.78;100.00;50072.50;4867479;29;20092;-69
2022/04/22 09:11:30;;;;;;;27.13;9.70;;;;;;;-149.78;100.00;50158.53;4888224;29;20064;-69
2022/04/22 09:14:00;;;;;;;19.55;8.45;;;;;;;-149.78;100.00;50150.72;4885316;29;20036;-69
2022/04/22 09:16:26;;;;;;;23.77;8.43;;;;;;;-149.78;100.00;50095.94;4890425;29;20028;-69
2022/04/22 09:19:03;;;;;;;20.23;9.35;;;;;;;-149.78;100.00;50099.88;4880078;29;20033;-69
2022/04/22 09:21:29;;;;;;;21.15;8.38;;;;;;;-149.78;100.00;50123.34;4888134;29;20299;-69
2022/04/22 09:23:55;;;;;;;23.30;8.27;;;;;;;-149.78;100.00;50131.16;4880936;29;20041;-69
2022/04/22 09:26:25;;;;;;;23.92;9.32;;;;;;;-149.78;100.00;50131.16;4879743;29;20469;-69
2022/04/22 09:29:02;;;;;;;21.27;9.13;;;;;;;-149.78;100.00;50123.34;4888104;29;20485;-69
2022/04/22 09:31:28;;;;;;;21.25;8.73;;;;;;;-149.78;100.00;50133.09;4898271;29;20032;-70
2022/04/22 09:33:55;;;;;;;21.90;8.60;;;;;;;-149.78;100.00;50150.72;4893635;29;20100;-72
2022/04/22 09:44:58;;;;;;;23.52;9.82;;;;;;;-149.78;100.00;50111.59;4884842;29;20064;-70
2022/04/22 09:47:32;;;;;;;25.30;11.20;;;;;;;-149.78;100.00;50103.78;4884822;29;20108;-68
2022/04/22 09:49:58;;;;;;;23.23;10.00;;;;;;;-149.78;100.00;50080.31;4898635;29;20032;-68
2022/04/22 09:52:28;;;;;;;24.13;9.45;;;;;;;-149.78;100.00;50064.66;4899228;29;20039;-69
2022/04/22 09:55:03;;;;;;;24.25;8.93;;;;;;;-149.78;100.00;50119.41;4891955;29;20036;-69
2022/04/22 09:57:48;;;;;;;20.98;8.95;;;;;;;-149.78;100.00;50094.00;4886726;29;20092;-69
2022/04/22 10:00:16;;;;;;;19.52;9.18;;;;;;;-149.78;100.00;50080.31;4884354;29;20037;-69
2022/04/22 10:02:42;;;;;;;19.80;8.43;;;;;;;-149.78;100.00;50052.94;4891230;29;20029;-69
2022/04/22 10:05:11;;;;;;;18.52;7.80;;;;;;;-149.78;100.00;50064.66;4899125;29;20064;-69
2022/04/22 10:07:37;;;;;;;19.30;6.85;;;;;;;-149.78;100.00;50049.03;4898949;29;20050;-69
2022/04/22 10:10:04;;;;;;;16.05;6.80;;;;;;;-149.78;100.00;50064.66;4898782;29;20614;-69
2022/04/22 10:12:30;;;;;;;17.45;5.95;;;;;;;-149.78;100.00;50090.09;4898570;29;20409;-69
2022/04/22 10:15:01;;;;;;;11.95;6.22;;;;;;;-149.78;100.00;50056.84;4898933;29;20056;-69
2022/04/22 10:17:28;;;;;;;17.88;6.50;;;;;;;-149.78;100.00;50041.19;4897564;29;20040;-69
2022/04/22 10:19:55;;;;;;;15.23;6.57;;;;;;;-149.78;100.00;50072.50;4898798;29;20028;-69
2022/04/22 10:22:21;;;;;;;13.48;5.43;;;;;;;-149.78;100.00;50033.38;4898750;29;20545;-69
2022/04/22 10:24:49;;;;;;;13.60;4.63;;;;;;;-149.78;100.00;50084.22;4897362;29;20463;-69
2022/04/22 10:27:16;;;;;;;10.10;4.80;;;;;;;-149.78;100.00;50025.56;4898571;29;20568;-69
2022/04/22 10:29:43;;;;;;;9.77;4.40;;;;;;;-149.78;95.14;50029.47;4897114;29;20047;-70
2022/04/22 10:32:11;;;;;;;13.00;3.13;;;;;;;-149.78;78.13;50080.31;4898354;29;20669;-69
2022/04/22 10:34:41;;;;;;;9.27;2.85;;;;;;;-149.78;77.12;50123.34;4887460;29;20502;-69
2022/04/22 10:37:23;;;;;;;6.10;2.38;;;;;;;-149.78;72.05;50088.13;4878806;29;20045;-69
2022/04/22 10:39:53;;;;;;;8.03;2.07;;;;;;;-149.78;66.21;50135.06;4886983;29;20044;-70
2022/04/22 10:42:18;;;;;;;6.70;1.80;;;;;;;-149.78;66.19;50060.75;4880497;29;20327;-69
2022/04/22 10:47:43;;;;;;;4.00;1.95;;;;;;;-149.78;57.12;50115.50;4881434;29;20048;-69
2022/04/22 10:50:27;;;;;;;4.70;1.70;;;;;;;-149.78;55.41;50076.41;4877292;29;20121;-69
2022/04/22 10:53:05;;;;;;;3.17;1.73;;;;;;;-149.78;54.90;50088.13;4879157;29;20080;-69
2022/04/22 10:55:41;;;;;;;6.38;1.80;;;;;;;-149.78;55.09;50107.69;4879200;29;20044;-69
2022/04/22 10:58:13;;;;;;;5.25;1.75;;;;;;;-149.78;55.38;50080.31;4878403;29;20370;-70
2022/04/22 11:00:42;;;;;;;5.15;1.90;;;;;;;-149.78;55.10;50095.94;4878235;29;20127;-69
2022/04/22 11:03:19;;;;;;;6.50;1.95;;;;;;;-149.78;55.30;50050.97;4879207;29;20127;-69
2022/04/22 11:05:58;;;;;;;3.65;1.80;;;;;;;-149.78;55.18;50056.84;4879159;29;20070;-70
2022/04/22 11:08:30;;;;;;;4.03;2.20;;;;;;;-149.78;54.86;50088.13;4877848;29;20124;-70
2022/04/22 11:11:00;;;;;;;4.13;2.05;;;;;;;-149.78;56.46;50092.03;4886422;29;20024;-69
2022/04/22 11:13:40;;;;;;;10.65;2.30;;;;;;;-149.78;55.23;50129.19;4897751;29;20036;-69
2022/04/22 11:16:28;;;;;;;7.03;2.25;;;;;;;-149.78;56.38;50115.50;4886369;29;20028;-70
2022/04/22 11:19:19;;;;;;;3.90;2.30;;;;;;;-149.78;55.46;50078.34;4885733;29;20032;-69
2022/04/22 11:21:50;;;;;;;3.90;1.88;;;;;;;-149.78;57.18;50084.22;4885880;29;20028;-69
2022/04/22 11:24:30;;;;;;;7.15;2.28;;;;;;;-149.78;54.63;50047.06;4885704;29;20033;-70
2022/04/22 11:27:10;;;;;;;4.55;2.38;;;;;;;-149.78;54.90;50092.03;4878918;29;20123;-69
2022/04/22 11:29:37;;;;;;;5.97;2.15;;;;;;;-149.78;53.91;50088.13;4903772;29;20036;-70
2022/04/22 11:32:11;;;;;;;7.45;2.42;;;;;;;-149.78;53.29;50103.78;4915149;29;20048;-70
2022/04/22 11:34:46;;;;;;;4.88;2.35;;;;;;;-149.78;53.10;50064.66;4888209;29;20032;-69
2022/04/22 11:37:19;;;;;;;6.05;2.00;;;;;;;-149.78;53.68;50088.13;4884770;29;20513;-69
2022/04/22 11:39:49;;;;;;;7.88;2.45;;;;;;;-149.78;52.78;50060.75;4885442;29;21450;-70
2022/04/22 11:42:17;;;;;;;5.70;2.25;;;;;;;-149.78;52.47;50078.34;4879698;29;20089;-70
2022/04/22 11:45:05;;;;;;;4.80;2.00;;;;;;;-149.78;51.48;50088.13;4892598;29;20052;-69
2022/04/22 11:47:31;;;;;;;3.55;2.10;;;;;;;-149.78;51.47;50092.03;4887186;29;20037;-69
2022/04/22 11:49:59;;;;;;;4.15;2.10;;;;;;;-149.78;52.53;50107.69;4891448;29;20527;-69
2022/04/22 11:52:28;;;;;;;4.93;2.25;;;;;;;-149.78;51.80;50088.13;4897258;29;20039;-67
2022/04/22 11:54:58;;;;;;;4.70;2.20;;;;;;;-149.78;50.88;50072.50;4896024;29;20038;-69